sensor_id;sensor_type;location;lat;lon;timestamp;pressure;altitude;pressure_sealevel;temperature;humidity
54022;BME280;39936;51.058;17.220;2024-03-02T00:00:56;100924.16;;;8.90;100.00
54022;BME280;39936;51.058;17.220;2024-03-02T00:04:18;100918.21;;;8.97;100.00
54022;BME280;39936;51.058;17.220;2024-03-02T00:07:47;100919.72;;;8.99;100.00
54022;BME280;39936;51.058;17.220;2024-03-02T00:11:09;100923.25;;;9.08;100.00
54022;BME280;39936;51.058;17.220;2024-03-02T00:14:33;100917.51;;;9.10;100.00
54022;BME280;39936;51.058;17.220;2024-03-02T00:17:58;100920.21;;;9.13;100.00
54022;BME280;39936;51.058;17.220;2024-03-02T00:21:27;100918.25;;;9.17;100.00
54022;BME280;39936;51.058;17.220;2024-03-02T00:24:51;100912.45;;;9.16;100.00
54022;BME280;39936;51.058;17.220;2024-03-02T00:28:25;100915.85;;;9.15;100.00
54022;BME280;39936;51.058;17.220;2024-03-02T00:31:48;100914.42;;;9.15;100.00
54022;BME280;39936;51.058;17.220;2024-03-02T00:35:09;100916.24;;;9.20;100.00
54022;BME280;39936;51.058;17.220;2024-03-02T00:38:32;100915.13;;;9.24;100.00
54022;BME280;39936;51.058;17.220;2024-03-02T00:41:57;100908.56;;;9.20;100.00
54022;BME280;39936;51.058;17.220;2024-03-02T00:45:22;100878.37;;;9.01;100.00
54022;BME280;39936;51.058;17.220;2024-03-02T00:48:51;100905.09;;;9.12;100.00
54022;BME280;39936;51.058;17.220;2024-03-02T00:52:14;100901.87;;;9.10;100.00
54022;BME280;39936;51.058;17.220;2024-03-02T00:55:40;100900.70;;;9.11;100.00
54022;BME280;39936;51.058;17.220;2024-03-02T00:59:11;100909.03;;;9.16;100.00
54022;BME280;39936;51.058;17.220;2024-03-02T01:02:28;100891.90;;;9.08;100.00
54022;BME280;39936;51.058;17.220;2024-03-02T01:05:53;100913.88;;;9.27;100.00
54022;BME280;39936;51.058;17.220;2024-03-02T01:09:19;100915.28;;;9.20;100.00
54022;BME280;39936;51.058;17.220;2024-03-02T01:12:41;100906.98;;;9.15;100.00
54022;BME280;39936;51.058;17.220;2024-03-02T01:16:01;100905.12;;;9.21;100.00
54022;BME280;39936;51.058;17.220;2024-03-02T01:19:23;100902.84;;;9.18;100.00
54022;BME280;39936;51.058;17.220;2024-03-02T01:22:51;100910.27;;;9.16;100.00
54022;BME280;39936;51.058;17.220;2024-03-02T01:26:14;100879.15;;;8.88;100.00
54022;BME280;39936;51.058;17.220;2024-03-02T01:29:35;100917.96;;;9.04;100.00
54022;BME280;39936;51.058;17.220;2024-03-02T01:32:59;100895.34;;;8.86;100.00
54022;BME280;39936;51.058;17.220;2024-03-02T01:36:24;100922.16;;;8.98;100.00
54022;BME280;39936;51.058;17.220;2024-03-02T01:39:46;100920.88;;;8.94;100.00
54022;BME280;39936;51.058;17.220;2024-03-02T01:43:11;100917.12;;;8.92;100.00
54022;BME280;39936;51.058;17.220;2024-03-02T01:46:32;100913.66;;;8.92;100.00
54022;BME280;39936;51.058;17.220;2024-03-02T01:50:03;100911.95;;;8.84;100.00
54022;BME280;39936;51.058;17.220;2024-03-02T01:53:28;100914.34;;;8.80;100.00
54022;BME280;39936;51.058;17.220;2024-03-02T01:56:49;100882.30;;;8.55;100.00
54022;BME280;39936;51.058;17.220;2024-03-02T02:00:14;100907.19;;;8.70;100.00
54022;BME280;39936;51.058;17.220;2024-03-02T02:03:35;100914.32;;;8.65;100.00
54022;BME280;39936;51.058;17.220;2024-03-02T02:06:56;100910.37;;;8.61;100.00
54022;BME280;39936;51.058;17.220;2024-03-02T02:10:18;100907.70;;;8.54;100.00
54022;BME280;39936;51.058;17.220;2024-03-02T02:13:35;100883.63;;;8.37;100.00
54022;BME280;39936;51.058;17.220;2024-03-02T02:17:04;100907.05;;;8.44;100.00
54022;BME280;39936;51.058;17.220;2024-03-02T02:20:30;100881.54;;;8.21;100.00
54022;BME280;39936;51.058;17.220;2024-03-02T02:23:51;100875.30;;;8.21;100.00
54022;BME280;39936;51.058;17.220;2024-03-02T02:27:12;100906.73;;;8.38;100.00
54022;BME280;39936;51.058;17.220;2024-03-02T02:30:39;100900.30;;;8.36;100.00
54022;BME280;39936;51.058;17.220;2024-03-02T02:34:05;100891.90;;;8.37;100.00
54022;BME280;39936;51.058;17.220;2024-03-02T02:37:22;100881.91;;;8.35;100.00
54022;BME280;39936;51.058;17.220;2024-03-02T02:40:47;100874.80;;;8.29;100.00
54022;BME280;39936;51.058;17.220;2024-03-02T02:44:13;100867.85;;;8.19;100.00
54022;BME280;39936;51.058;17.220;2024-03-02T02:47:38;100861.30;;;8.13;100.00
54022;BME280;39936;51.058;17.220;2024-03-02T02:50:59;100865.67;;;8.18;100.00
54022;BME280;39936;51.058;17.220;2024-03-02T02:54:20;100864.66;;;8.14;100.00
54022;BME280;39936;51.058;17.220;2024-03-02T02:57:41;100883.22;;;8.12;100.00
54022;BME280;39936;51.058;17.220;2024-03-02T03:01:01;100886.48;;;8.05;100.00
54022;BME280;39936;51.058;17.220;2024-03-02T03:04:27;100867.08;;;7.82;100.00
54022;BME280;39936;51.058;17.220;2024-03-02T03:07:53;100883.55;;;7.91;100.00
54022;BME280;39936;51.058;17.220;2024-03-02T03:11:18;100891.50;;;8.01;100.00
54022;BME280;39936;51.058;17.220;2024-03-02T03:14:43;100893.41;;;7.99;100.00
54022;BME280;39936;51.058;17.220;2024-03-02T03:18:04;100892.73;;;8.02;100.00
54022;BME280;39936;51.058;17.220;2024-03-02T03:21:29;100878.26;;;7.96;100.00
54022;BME280;39936;51.058;17.220;2024-03-02T03:24:50;100897.58;;;8.07;100.00
54022;BME280;39936;51.058;17.220;2024-03-02T03:28:11;100898.80;;;8.07;100.00
54022;BME280;39936;51.058;17.220;2024-03-02T03:31:36;100895.32;;;8.14;100.00
54022;BME280;39936;51.058;17.220;2024-03-02T03:35:01;100896.98;;;8.19;100.00
54022;BME280;39936;51.058;17.220;2024-03-02T03:38:26;100900.30;;;8.17;100.00
54022;BME280;39936;51.058;17.220;2024-03-02T03:41:48;100906.03;;;8.09;100.00
54022;BME280;39936;51.058;17.220;2024-03-02T03:45:14;100898.91;;;8.08;100.00
54022;BME280;39936;51.058;17.220;2024-03-02T03:48:35;100898.91;;;8.12;100.00
54022;BME280;39936;51.058;17.220;2024-03-02T03:52:04;100874.32;;;7.99;100.00
54022;BME280;39936;51.058;17.220;2024-03-02T03:55:30;100898.64;;;8.14;100.00
54022;BME280;39936;51.058;17.220;2024-03-02T03:58:54;100896.75;;;8.11;100.00
54022;BME280;39936;51.058;17.220;2024-03-02T04:02:15;100900.66;;;8.14;100.00
54022;BME280;39936;51.058;17.220;2024-03-02T04:05:36;100894.07;;;8.11;100.00
54022;BME280;39936;51.058;17.220;2024-03-02T04:09:02;100898.34;;;8.11;100.00
54022;BME280;39936;51.058;17.220;2024-03-02T04:12:28;100865.17;;;7.89;100.00
54022;BME280;39936;51.058;17.220;2024-03-02T04:15:54;100905.30;;;8.11;100.00
54022;BME280;39936;51.058;17.220;2024-03-02T04:19:15;100906.97;;;8.11;100.00
54022;BME280;39936;51.058;17.220;2024-03-02T04:22:33;100902.98;;;8.09;100.00
54022;BME280;39936;51.058;17.220;2024-03-02T04:25:56;100900.11;;;8.09;100.00
54022;BME280;39936;51.058;17.220;2024-03-02T04:29:13;100897.77;;;8.15;100.00
54022;BME280;39936;51.058;17.220;2024-03-02T04:32:34;100902.41;;;8.19;100.00
54022;BME280;39936;51.058;17.220;2024-03-02T04:35:59;100909.31;;;8.24;100.00
54022;BME280;39936;51.058;17.220;2024-03-02T04:39:24;100913.30;;;8.20;100.00
54022;BME280;39936;51.058;17.220;2024-03-02T04:42:46;100914.37;;;8.12;100.00
54022;BME280;39936;51.058;17.220;2024-03-02T04:46:08;100913.68;;;8.04;100.00
54022;BME280;39936;51.058;17.220;2024-03-02T04:49:34;100919.55;;;7.91;100.00
54022;BME280;39936;51.058;17.220;2024-03-02T04:52:54;100898.19;;;7.73;100.00
54022;BME280;39936;51.058;17.220;2024-03-02T04:56:23;100927.30;;;7.85;100.00
54022;BME280;39936;51.058;17.220;2024-03-02T05:00:00;100923.03;;;7.83;100.00
54022;BME280;39936;51.058;17.220;2024-03-02T05:03:18;100925.79;;;7.75;100.00
54022;BME280;39936;51.058;17.220;2024-03-02T05:06:40;100930.90;;;7.73;100.00
54022;BME280;39936;51.058;17.220;2024-03-02T05:10:02;100924.96;;;7.66;100.00
54022;BME280;39936;51.058;17.220;2024-03-02T05:13:18;100937.20;;;7.66;100.00
54022;BME280;39936;51.058;17.220;2024-03-02T05:16:45;100938.85;;;7.66;100.00
54022;BME280;39936;51.058;17.220;2024-03-02T05:20:10;100942.16;;;7.68;100.00
54022;BME280;39936;51.058;17.220;2024-03-02T05:23:28;100941.89;;;7.65;100.00
54022;BME280;39936;51.058;17.220;2024-03-02T05:26:45;100943.28;;;7.59;100.00
54022;BME280;39936;51.058;17.220;2024-03-02T05:30:05;100945.04;;;7.52;100.00
54022;BME280;39936;51.058;17.220;2024-03-02T05:33:27;100951.95;;;7.48;100.00
54022;BME280;39936;51.058;17.220;2024-03-02T05:36:50;100956.84;;;7.48;100.00
54022;BME280;39936;51.058;17.220;2024-03-02T05:40:11;100942.18;;;7.27;100.00
54022;BME280;39936;51.058;17.220;2024-03-02T05:43:30;100962.62;;;7.30;100.00
54022;BME280;39936;51.058;17.220;2024-03-02T05:46:51;100958.15;;;7.28;100.00
54022;BME280;39936;51.058;17.220;2024-03-02T05:50:08;100962.16;;;7.33;100.00
54022;BME280;39936;51.058;17.220;2024-03-02T05:53:30;100961.86;;;7.38;100.00
54022;BME280;39936;51.058;17.220;2024-03-02T05:56:51;100959.24;;;7.36;100.00
54022;BME280;39936;51.058;17.220;2024-03-02T06:00:17;100965.23;;;7.38;100.00
54022;BME280;39936;51.058;17.220;2024-03-02T06:03:34;100971.66;;;7.39;100.00
54022;BME280;39936;51.058;17.220;2024-03-02T06:07:05;100956.59;;;7.29;100.00
54022;BME280;39936;51.058;17.220;2024-03-02T06:10:26;100974.77;;;7.41;100.00
54022;BME280;39936;51.058;17.220;2024-03-02T06:13:52;100983.02;;;7.36;100.00
54022;BME280;39936;51.058;17.220;2024-03-02T06:17:22;100985.78;;;7.34;100.00
54022;BME280;39936;51.058;17.220;2024-03-02T06:20:45;100984.91;;;7.27;100.00
54022;BME280;39936;51.058;17.220;2024-03-02T06:24:14;100986.63;;;7.33;100.00
54022;BME280;39936;51.058;17.220;2024-03-02T06:27:35;100993.73;;;7.40;100.00
54022;BME280;39936;51.058;17.220;2024-03-02T06:31:01;101005.06;;;7.48;100.00
54022;BME280;39936;51.058;17.220;2024-03-02T06:34:22;100996.60;;;7.55;100.00
54022;BME280;39936;51.058;17.220;2024-03-02T06:37:47;101004.89;;;7.67;100.00
54022;BME280;39936;51.058;17.220;2024-03-02T06:41:11;101003.70;;;7.70;100.00
54022;BME280;39936;51.058;17.220;2024-03-02T06:44:32;101001.31;;;7.72;100.00
54022;BME280;39936;51.058;17.220;2024-03-02T06:47:53;100998.87;;;7.81;100.00
54022;BME280;39936;51.058;17.220;2024-03-02T06:51:14;100991.15;;;7.90;100.00
54022;BME280;39936;51.058;17.220;2024-03-02T06:54:37;100995.55;;;7.98;100.00
54022;BME280;39936;51.058;17.220;2024-03-02T06:57:58;101001.90;;;8.10;100.00
54022;BME280;39936;51.058;17.220;2024-03-02T07:01:20;101005.49;;;8.31;100.00
54022;BME280;39936;51.058;17.220;2024-03-02T07:04:41;100996.72;;;8.46;100.00
54022;BME280;39936;51.058;17.220;2024-03-02T07:08:07;101000.40;;;8.68;100.00
54022;BME280;39936;51.058;17.220;2024-03-02T07:11:29;101000.96;;;8.84;100.00
54022;BME280;39936;51.058;17.220;2024-03-02T07:14:49;100985.28;;;8.85;100.00
54022;BME280;39936;51.058;17.220;2024-03-02T07:18:20;100998.84;;;9.02;100.00
54022;BME280;39936;51.058;17.220;2024-03-02T07:21:41;100960.38;;;8.96;100.00
54022;BME280;39936;51.058;17.220;2024-03-02T07:25:08;100992.43;;;9.33;100.00
54022;BME280;39936;51.058;17.220;2024-03-02T07:28:33;101006.61;;;9.61;100.00
54022;BME280;39936;51.058;17.220;2024-03-02T07:32:04;101006.78;;;9.82;100.00
54022;BME280;39936;51.058;17.220;2024-03-02T07:35:29;100999.25;;;9.94;100.00
54022;BME280;39936;51.058;17.220;2024-03-02T07:38:56;101008.29;;;10.12;100.00
54022;BME280;39936;51.058;17.220;2024-03-02T07:42:14;101010.15;;;10.18;100.00
54022;BME280;39936;51.058;17.220;2024-03-02T07:45:33;101009.38;;;10.32;100.00
54022;BME280;39936;51.058;17.220;2024-03-02T07:48:55;101013.90;;;10.35;100.00
54022;BME280;39936;51.058;17.220;2024-03-02T07:52:17;101022.03;;;10.12;100.00
54022;BME280;39936;51.058;17.220;2024-03-02T07:55:38;101007.67;;;9.96;100.00
54022;BME280;39936;51.058;17.220;2024-03-02T07:59:01;101032.20;;;10.14;100.00
54022;BME280;39936;51.058;17.220;2024-03-02T08:02:23;101030.41;;;10.23;100.00
54022;BME280;39936;51.058;17.220;2024-03-02T08:05:44;101032.36;;;10.32;100.00
54022;BME280;39936;51.058;17.220;2024-03-02T08:09:06;101014.76;;;10.41;100.00
54022;BME280;39936;51.058;17.220;2024-03-02T08:12:34;101018.77;;;10.53;100.00
54022;BME280;39936;51.058;17.220;2024-03-02T08:15:53;100980.80;;;10.60;100.00
54022;BME280;39936;51.058;17.220;2024-03-02T08:19:15;101019.60;;;11.13;100.00
54022;BME280;39936;51.058;17.220;2024-03-02T08:22:37;101014.28;;;11.47;100.00
54022;BME280;39936;51.058;17.220;2024-03-02T08:25:54;101012.27;;;11.66;100.00
54022;BME280;39936;51.058;17.220;2024-03-02T08:29:20;101014.39;;;11.80;100.00
54022;BME280;39936;51.058;17.220;2024-03-02T08:32:37;101005.38;;;11.97;100.00
54022;BME280;39936;51.058;17.220;2024-03-02T08:35:56;101004.22;;;11.99;98.96
54022;BME280;39936;51.058;17.220;2024-03-02T08:39:18;101000.31;;;12.05;98.01
54022;BME280;39936;51.058;17.220;2024-03-02T08:42:38;100994.23;;;12.25;98.44
54022;BME280;39936;51.058;17.220;2024-03-02T08:46:04;100997.14;;;12.51;98.06
54022;BME280;39936;51.058;17.220;2024-03-02T08:49:28;100995.62;;;12.71;97.31
54022;BME280;39936;51.058;17.220;2024-03-02T08:52:50;100961.12;;;12.69;96.12
54022;BME280;39936;51.058;17.220;2024-03-02T08:56:10;100998.59;;;13.06;93.18
54022;BME280;39936;51.058;17.220;2024-03-02T08:59:34;100997.13;;;13.08;90.13
54022;BME280;39936;51.058;17.220;2024-03-02T09:03:01;100982.96;;;13.07;90.73
54022;BME280;39936;51.058;17.220;2024-03-02T09:06:20;100994.03;;;13.30;90.01
54022;BME280;39936;51.058;17.220;2024-03-02T09:09:38;100999.57;;;13.29;88.32
54022;BME280;39936;51.058;17.220;2024-03-02T09:13:00;101001.70;;;13.16;87.05
54022;BME280;39936;51.058;17.220;2024-03-02T09:16:17;101004.09;;;12.95;87.00
54022;BME280;39936;51.058;17.220;2024-03-02T09:19:37;100990.96;;;12.79;87.68
54022;BME280;39936;51.058;17.220;2024-03-02T09:22:55;101000.33;;;12.94;88.89
54022;BME280;39936;51.058;17.220;2024-03-02T09:26:13;101006.16;;;12.91;87.95
54022;BME280;39936;51.058;17.220;2024-03-02T09:29:38;101004.62;;;12.84;88.95
54022;BME280;39936;51.058;17.220;2024-03-02T09:33:08;100996.15;;;13.01;90.44
54022;BME280;39936;51.058;17.220;2024-03-02T09:36:29;101003.95;;;13.26;88.91
54022;BME280;39936;51.058;17.220;2024-03-02T09:39:46;101003.19;;;13.34;86.98
54022;BME280;39936;51.058;17.220;2024-03-02T09:43:01;100995.41;;;13.41;86.35
54022;BME280;39936;51.058;17.220;2024-03-02T09:46:23;100993.02;;;13.46;85.62
54022;BME280;39936;51.058;17.220;2024-03-02T09:49:45;100993.35;;;13.51;84.73
54022;BME280;39936;51.058;17.220;2024-03-02T09:53:07;100992.36;;;13.59;84.93
54022;BME280;39936;51.058;17.220;2024-03-02T09:56:29;100990.51;;;13.55;83.51
54022;BME280;39936;51.058;17.220;2024-03-02T09:59:46;100991.87;;;13.69;83.61
54022;BME280;39936;51.058;17.220;2024-03-02T10:03:12;100993.94;;;13.76;81.09
54022;BME280;39936;51.058;17.220;2024-03-02T10:06:29;100995.78;;;13.79;81.83
54022;BME280;39936;51.058;17.220;2024-03-02T10:09:50;100996.31;;;13.69;80.65
54022;BME280;39936;51.058;17.220;2024-03-02T10:13:13;100997.28;;;13.71;80.39
54022;BME280;39936;51.058;17.220;2024-03-02T10:16:28;100991.63;;;13.66;81.78
54022;BME280;39936;51.058;17.220;2024-03-02T10:19:49;100988.91;;;13.87;81.95
54022;BME280;39936;51.058;17.220;2024-03-02T10:23:15;100984.76;;;13.97;81.19
54022;BME280;39936;51.058;17.220;2024-03-02T10:26:42;100961.78;;;13.84;81.48
54022;BME280;39936;51.058;17.220;2024-03-02T10:30:00;100976.86;;;14.08;81.57
54022;BME280;39936;51.058;17.220;2024-03-02T10:33:24;100967.93;;;14.21;81.26
54022;BME280;39936;51.058;17.220;2024-03-02T10:36:43;100957.28;;;14.24;80.39
54022;BME280;39936;51.058;17.220;2024-03-02T10:40:09;100959.77;;;14.33;79.61
54022;BME280;39936;51.058;17.220;2024-03-02T10:43:36;100944.33;;;14.11;79.12
54022;BME280;39936;51.058;17.220;2024-03-02T10:47:01;100956.99;;;14.33;78.87
54022;BME280;39936;51.058;17.220;2024-03-02T10:50:34;100957.97;;;14.46;80.24
54022;BME280;39936;51.058;17.220;2024-03-02T10:53:54;100953.48;;;14.56;78.56
54022;BME280;39936;51.058;17.220;2024-03-02T10:57:14;100956.38;;;14.55;77.02
54022;BME280;39936;51.058;17.220;2024-03-02T11:00:39;100962.44;;;14.22;77.63
54022;BME280;39936;51.058;17.220;2024-03-02T11:03:59;100959.37;;;14.23;79.00
54022;BME280;39936;51.058;17.220;2024-03-02T11:07:21;100957.55;;;14.24;77.85
54022;BME280;39936;51.058;17.220;2024-03-02T11:10:50;100957.30;;;14.37;76.56
54022;BME280;39936;51.058;17.220;2024-03-02T11:14:17;100950.33;;;14.57;77.77
54022;BME280;39936;51.058;17.220;2024-03-02T11:17:39;100949.37;;;14.71;75.17
54022;BME280;39936;51.058;17.220;2024-03-02T11:20:54;100950.09;;;14.83;76.32
54022;BME280;39936;51.058;17.220;2024-03-02T11:31:18;100952.21;;;14.58;74.92
54022;BME280;39936;51.058;17.220;2024-03-02T11:34:42;100935.91;;;14.51;74.34
54022;BME280;39936;51.058;17.220;2024-03-02T11:38:10;100931.83;;;14.41;72.79
54022;BME280;39936;51.058;17.220;2024-03-02T11:41:35;100951.16;;;14.55;72.47
54022;BME280;39936;51.058;17.220;2024-03-02T11:44:56;100954.24;;;14.59;72.35
54022;BME280;39936;51.058;17.220;2024-03-02T11:48:22;100952.20;;;14.64;72.25
54022;BME280;39936;51.058;17.220;2024-03-02T11:51:53;100951.50;;;14.67;71.75
54022;BME280;39936;51.058;17.220;2024-03-02T11:55:14;100952.47;;;14.52;73.08
54022;BME280;39936;51.058;17.220;2024-03-02T11:58:37;100957.48;;;14.45;72.51
54022;BME280;39936;51.058;17.220;2024-03-02T12:01:58;100955.89;;;14.33;72.64
54022;BME280;39936;51.058;17.220;2024-03-02T12:05:24;100960.49;;;14.46;73.76
54022;BME280;39936;51.058;17.220;2024-03-02T12:08:43;100958.95;;;14.60;73.59
54022;BME280;39936;51.058;17.220;2024-03-02T12:12:09;100958.19;;;14.57;72.46
54022;BME280;39936;51.058;17.220;2024-03-02T12:15:34;100949.70;;;14.62;73.88
54022;BME280;39936;51.058;17.220;2024-03-02T12:18:54;100939.18;;;14.77;73.28
54022;BME280;39936;51.058;17.220;2024-03-02T12:22:07;100939.63;;;14.89;73.15
54022;BME280;39936;51.058;17.220;2024-03-02T12:25:23;100939.73;;;14.68;70.77
54022;BME280;39936;51.058;17.220;2024-03-02T12:28:43;100933.91;;;14.72;72.67
54022;BME280;39936;51.058;17.220;2024-03-02T12:31:57;100922.80;;;14.83;72.92
54022;BME280;39936;51.058;17.220;2024-03-02T12:35:19;100935.05;;;14.80;71.72
54022;BME280;39936;51.058;17.220;2024-03-02T12:38:45;100899.23;;;14.37;71.90
54022;BME280;39936;51.058;17.220;2024-03-02T12:42:10;100940.64;;;14.51;71.89
54022;BME280;39936;51.058;17.220;2024-03-02T12:45:29;100935.35;;;14.65;72.44
54022;BME280;39936;51.058;17.220;2024-03-02T12:48:46;100912.27;;;14.27;71.18
54022;BME280;39936;51.058;17.220;2024-03-02T12:52:07;100941.43;;;14.43;71.56
54022;BME280;39936;51.058;17.220;2024-03-02T12:55:27;100933.02;;;14.66;72.47
54022;BME280;39936;51.058;17.220;2024-03-02T12:58:55;100931.91;;;14.84;71.62
54022;BME280;39936;51.058;17.220;2024-03-02T13:02:21;100927.25;;;14.97;71.05
54022;BME280;39936;51.058;17.220;2024-03-02T13:05:37;100928.27;;;14.93;70.81
54022;BME280;39936;51.058;17.220;2024-03-02T13:09:00;100929.95;;;15.01;70.71
54022;BME280;39936;51.058;17.220;2024-03-02T13:12:23;100915.55;;;15.08;70.51
54022;BME280;39936;51.058;17.220;2024-03-02T13:15:42;100920.80;;;15.10;68.87
54022;BME280;39936;51.058;17.220;2024-03-02T13:18:59;100923.73;;;15.04;68.57
54022;BME280;39936;51.058;17.220;2024-03-02T13:22:27;100922.80;;;14.92;70.03
54022;BME280;39936;51.058;17.220;2024-03-02T13:25:49;100923.58;;;14.90;69.31
54022;BME280;39936;51.058;17.220;2024-03-02T13:29:06;100922.52;;;14.86;69.68
54022;BME280;39936;51.058;17.220;2024-03-02T13:32:29;100918.70;;;14.94;70.49
54022;BME280;39936;51.058;17.220;2024-03-02T13:35:54;100915.78;;;14.95;70.03
54022;BME280;39936;51.058;17.220;2024-03-02T13:39:12;100922.27;;;14.93;69.16
54022;BME280;39936;51.058;17.220;2024-03-02T13:42:35;100927.15;;;14.83;69.27
54022;BME280;39936;51.058;17.220;2024-03-02T13:46:02;100926.54;;;14.77;69.35
54022;BME280;39936;51.058;17.220;2024-03-02T13:49:23;100928.23;;;14.68;69.27
54022;BME280;39936;51.058;17.220;2024-03-02T13:52:47;100932.34;;;14.60;69.96
54022;BME280;39936;51.058;17.220;2024-03-02T13:56:07;100930.24;;;14.52;70.76
54022;BME280;39936;51.058;17.220;2024-03-02T13:59:28;100943.09;;;14.48;70.88
54022;BME280;39936;51.058;17.220;2024-03-02T14:02:54;100939.88;;;14.39;71.42
54022;BME280;39936;51.058;17.220;2024-03-02T14:06:08;100951.23;;;14.39;71.78
54022;BME280;39936;51.058;17.220;2024-03-02T14:09:26;100952.66;;;14.38;72.17
54022;BME280;39936;51.058;17.220;2024-03-02T14:12:48;100949.94;;;14.18;72.24
54022;BME280;39936;51.058;17.220;2024-03-02T14:16:07;100944.12;;;13.97;73.09
54022;BME280;39936;51.058;17.220;2024-03-02T14:19:38;100952.22;;;13.82;73.66
54022;BME280;39936;51.058;17.220;2024-03-02T14:23:04;100942.02;;;13.74;74.08
54022;BME280;39936;51.058;17.220;2024-03-02T14:26:18;100932.40;;;13.66;74.05
54022;BME280;39936;51.058;17.220;2024-03-02T14:29:35;100927.35;;;13.61;74.22
54022;BME280;39936;51.058;17.220;2024-03-02T14:32:59;100941.82;;;13.63;74.28
54022;BME280;39936;51.058;17.220;2024-03-02T14:36:17;100953.23;;;13.56;74.69
54022;BME280;39936;51.058;17.220;2024-03-02T14:39:35;100957.83;;;13.47;75.10
54022;BME280;39936;51.058;17.220;2024-03-02T14:42:49;100956.52;;;13.43;75.43
54022;BME280;39936;51.058;17.220;2024-03-02T14:46:06;100947.03;;;13.36;75.88
54022;BME280;39936;51.058;17.220;2024-03-02T14:49:27;100951.34;;;13.34;76.07
54022;BME280;39936;51.058;17.220;2024-03-02T14:52:45;100947.45;;;13.31;76.23
54022;BME280;39936;51.058;17.220;2024-03-02T14:56:07;100948.39;;;13.22;76.68
54022;BME280;39936;51.058;17.220;2024-03-02T14:59:25;100921.45;;;12.94;77.42
54022;BME280;39936;51.058;17.220;2024-03-02T15:02:53;100949.14;;;12.96;78.13
54022;BME280;39936;51.058;17.220;2024-03-02T15:06:12;100951.63;;;12.92;78.66
54022;BME280;39936;51.058;17.220;2024-03-02T15:09:31;100950.10;;;12.87;78.96
54022;BME280;39936;51.058;17.220;2024-03-02T15:12:47;100948.63;;;12.87;79.20
54022;BME280;39936;51.058;17.220;2024-03-02T15:16:06;100947.21;;;12.91;79.26
54022;BME280;39936;51.058;17.220;2024-03-02T15:19:23;100948.33;;;12.90;79.29
54022;BME280;39936;51.058;17.220;2024-03-02T15:22:44;100938.37;;;12.80;79.39
54022;BME280;39936;51.058;17.220;2024-03-02T15:25:56;100942.76;;;12.82;79.65
54022;BME280;39936;51.058;17.220;2024-03-02T15:29:11;100946.66;;;12.74;79.72
54022;BME280;39936;51.058;17.220;2024-03-02T15:32:25;100946.36;;;12.75;79.88
54022;BME280;39936;51.058;17.220;2024-03-02T15:35:51;100949.44;;;12.65;80.09
54022;BME280;39936;51.058;17.220;2024-03-02T15:39:07;100946.48;;;12.56;80.09
54022;BME280;39936;51.058;17.220;2024-03-02T15:42:33;100947.32;;;12.50;80.02
54022;BME280;39936;51.058;17.220;2024-03-02T15:45:50;100947.88;;;12.42;80.67
54022;BME280;39936;51.058;17.220;2024-03-02T15:49:09;100947.79;;;12.37;81.17
54022;BME280;39936;51.058;17.220;2024-03-02T15:52:27;100949.91;;;12.28;82.08
54022;BME280;39936;51.058;17.220;2024-03-02T15:55:53;100945.45;;;12.20;82.67
54022;BME280;39936;51.058;17.220;2024-03-02T15:59:07;100939.10;;;12.15;82.80
54022;BME280;39936;51.058;17.220;2024-03-02T16:02:27;100939.09;;;12.08;83.04
54022;BME280;39936;51.058;17.220;2024-03-02T16:05:50;100941.33;;;12.02;83.38
54022;BME280;39936;51.058;17.220;2024-03-02T16:09:16;100943.90;;;11.99;83.29
54022;BME280;39936;51.058;17.220;2024-03-02T16:12:42;100941.23;;;11.96;83.48
54022;BME280;39936;51.058;17.220;2024-03-02T16:16:01;100936.83;;;11.91;83.96
54022;BME280;39936;51.058;17.220;2024-03-02T16:19:24;100940.30;;;11.87;84.21
54022;BME280;39936;51.058;17.220;2024-03-02T16:22:46;100944.05;;;11.80;84.66
54022;BME280;39936;51.058;17.220;2024-03-02T16:26:12;100944.66;;;11.78;85.04
54022;BME280;39936;51.058;17.220;2024-03-02T16:29:31;100946.64;;;11.72;85.95
54022;BME280;39936;51.058;17.220;2024-03-02T16:32:53;100946.89;;;11.66;86.61
54022;BME280;39936;51.058;17.220;2024-03-02T16:36:14;100945.75;;;11.61;87.51
54022;BME280;39936;51.058;17.220;2024-03-02T16:39:36;100941.77;;;11.58;88.17
54022;BME280;39936;51.058;17.220;2024-03-02T16:42:57;100945.14;;;11.59;88.26
54022;BME280;39936;51.058;17.220;2024-03-02T16:46:23;100945.32;;;11.53;89.22
54022;BME280;39936;51.058;17.220;2024-03-02T16:49:47;100942.09;;;11.49;89.79
54022;BME280;39936;51.058;17.220;2024-03-02T16:53:09;100941.45;;;11.45;90.79
54022;BME280;39936;51.058;17.220;2024-03-02T16:56:27;100944.36;;;11.44;91.30
54022;BME280;39936;51.058;17.220;2024-03-02T16:59:55;100945.25;;;11.41;92.00
54022;BME280;39936;51.058;17.220;2024-03-02T17:03:12;100943.89;;;11.37;93.32
54022;BME280;39936;51.058;17.220;2024-03-02T17:06:33;100933.02;;;11.20;94.95
54022;BME280;39936;51.058;17.220;2024-03-02T17:09:59;100945.55;;;11.25;95.63
54022;BME280;39936;51.058;17.220;2024-03-02T17:13:25;100948.83;;;11.19;96.66
54022;BME280;39936;51.058;17.220;2024-03-02T17:16:51;100948.73;;;11.13;97.77
54022;BME280;39936;51.058;17.220;2024-03-02T17:20:09;100940.59;;;11.01;98.45
54022;BME280;39936;51.058;17.220;2024-03-02T17:23:27;100936.70;;;10.95;99.12
54022;BME280;39936;51.058;17.220;2024-03-02T17:26:44;100955.67;;;11.04;99.07
54022;BME280;39936;51.058;17.220;2024-03-02T17:29:55;100955.38;;;11.01;99.48